sensor_id;sensor_type;location;lat;lon;timestamp;temperature;humidity
55711;DHT22;41612;51.994;5.880;2022-07-29T00:00:28;19.50;57.10
55711;DHT22;41612;51.994;5.880;2022-07-29T00:02:54;19.50;57.80
55711;DHT22;41612;51.994;5.880;2022-07-29T00:05:20;19.50;57.90
55711;DHT22;41612;51.994;5.880;2022-07-29T00:07:45;19.50;57.50
55711;DHT22;41612;51.994;5.880;2022-07-29T00:10:11;19.30;57.80
55711;DHT22;41612;51.994;5.880;2022-07-29T00:12:37;19.30;58.10
55711;DHT22;41612;51.994;5.880;2022-07-29T00:15:03;19.30;58.20
55711;DHT22;41612;51.994;5.880;2022-07-29T00:17:29;19.30;58.40
55711;DHT22;41612;51.994;5.880;2022-07-29T00:19:55;19.30;58.10
55711;DHT22;41612;51.994;5.880;2022-07-29T00:22:21;19.30;58.40
55711;DHT22;41612;51.994;5.880;2022-07-29T00:24:48;19.30;58.40
55711;DHT22;41612;51.994;5.880;2022-07-29T00:27:14;19.30;58.30
55711;DHT22;41612;51.994;5.880;2022-07-29T00:29:39;19.30;58.40
55711;DHT22;41612;51.994;5.880;2022-07-29T00:32:05;19.30;58.40
55711;DHT22;41612;51.994;5.880;2022-07-29T00:34:31;19.30;58.20
55711;DHT22;41612;51.994;5.880;2022-07-29T00:37:15;19.30;58.40
55711;DHT22;41612;51.994;5.880;2022-07-29T00:39:41;19.20;58.50
55711;DHT22;41612;51.994;5.880;2022-07-29T00:42:07;19.20;58.50
55711;DHT22;41612;51.994;5.880;2022-07-29T00:44:37;19.20;58.50
55711;DHT22;41612;51.994;5.880;2022-07-29T00:47:03;19.20;58.50
55711;DHT22;41612;51.994;5.880;2022-07-29T00:49:29;19.20;58.60
55711;DHT22;41612;51.994;5.880;2022-07-29T00:51:55;19.20;58.50
55711;DHT22;41612;51.994;5.880;2022-07-29T00:54:20;19.20;58.50
55711;DHT22;41612;51.994;5.880;2022-07-29T00:56:46;19.10;58.60
55711;DHT22;41612;51.994;5.880;2022-07-29T00:59:12;19.20;58.60
55711;DHT22;41612;51.994;5.880;2022-07-29T01:01:37;19.10;58.70
55711;DHT22;41612;51.994;5.880;2022-07-29T01:04:03;19.10;58.80
55711;DHT22;41612;51.994;5.880;2022-07-29T01:06:30;19.00;58.90
55711;DHT22;41612;51.994;5.880;2022-07-29T01:08:56;19.00;58.90
55711;DHT22;41612;51.994;5.880;2022-07-29T01:11:22;19.10;58.80
55711;DHT22;41612;51.994;5.880;2022-07-29T01:13:48;19.10;58.90
55711;DHT22;41612;51.994;5.880;2022-07-29T01:16:20;19.00;58.80
55711;DHT22;41612;51.994;5.880;2022-07-29T01:18:48;19.00;58.80
55711;DHT22;41612;51.994;5.880;2022-07-29T01:24:29;19.00;59.00
55711;DHT22;41612;51.994;5.880;2022-07-29T01:27:01;18.90;59.00
55711;DHT22;41612;51.994;5.880;2022-07-29T01:29:41;18.90;59.00
55711;DHT22;41612;51.994;5.880;2022-07-29T01:32:17;19.00;59.10
55711;DHT22;41612;51.994;5.880;2022-07-29T01:35:05;18.90;59.00
55711;DHT22;41612;51.994;5.880;2022-07-29T01:38:08;19.00;59.00
55711;DHT22;41612;51.994;5.880;2022-07-29T01:40:43;18.90;59.00
55711;DHT22;41612;51.994;5.880;2022-07-29T01:43:14;18.80;59.20
55711;DHT22;41612;51.994;5.880;2022-07-29T01:45:43;18.80;59.10
55711;DHT22;41612;51.994;5.880;2022-07-29T01:48:15;18.80;59.20
55711;DHT22;41612;51.994;5.880;2022-07-29T01:51:04;18.90;59.20
55711;DHT22;41612;51.994;5.880;2022-07-29T01:56:42;18.80;59.10
55711;DHT22;41612;51.994;5.880;2022-07-29T01:59:10;18.80;59.20
55711;DHT22;41612;51.994;5.880;2022-07-29T02:01:36;18.80;59.20
55711;DHT22;41612;51.994;5.880;2022-07-29T02:04:04;18.80;59.10
55711;DHT22;41612;51.994;5.880;2022-07-29T02:06:33;18.80;59.10
55711;DHT22;41612;51.994;5.880;2022-07-29T02:09:00;18.70;59.30
55711;DHT22;41612;51.994;5.880;2022-07-29T02:11:27;18.70;59.40
55711;DHT22;41612;51.994;5.880;2022-07-29T02:13:56;18.70;59.50
55711;DHT22;41612;51.994;5.880;2022-07-29T02:16:24;18.70;59.30
55711;DHT22;41612;51.994;5.880;2022-07-29T02:18:53;18.70;59.30
55711;DHT22;41612;51.994;5.880;2022-07-29T02:21:24;18.70;59.30
55711;DHT22;41612;51.994;5.880;2022-07-29T02:23:51;18.70;59.20
55711;DHT22;41612;51.994;5.880;2022-07-29T02:26:20;18.70;59.20
55711;DHT22;41612;51.994;5.880;2022-07-29T02:28:50;18.70;59.40
55711;DHT22;41612;51.994;5.880;2022-07-29T02:31:18;18.70;59.40
55711;DHT22;41612;51.994;5.880;2022-07-29T02:33:47;18.60;59.50
55711;DHT22;41612;51.994;5.880;2022-07-29T02:36:14;18.60;59.50
55711;DHT22;41612;51.994;5.880;2022-07-29T02:38:42;18.50;59.70
55711;DHT22;41612;51.994;5.880;2022-07-29T02:41:23;18.50;59.80
55711;DHT22;41612;51.994;5.880;2022-07-29T02:43:55;18.50;59.90
55711;DHT22;41612;51.994;5.880;2022-07-29T02:46:27;18.50;60.00
55711;DHT22;41612;51.994;5.880;2022-07-29T02:49:16;18.40;60.20
55711;DHT22;41612;51.994;5.880;2022-07-29T02:51:51;18.40;60.20
55711;DHT22;41612;51.994;5.880;2022-07-29T02:56:57;18.30;60.40
55711;DHT22;41612;51.994;5.880;2022-07-29T02:59:26;18.30;60.50
55711;DHT22;41612;51.994;5.880;2022-07-29T03:01:54;18.30;60.60
55711;DHT22;41612;51.994;5.880;2022-07-29T03:04:21;18.20;60.80
55711;DHT22;41612;51.994;5.880;2022-07-29T03:06:49;18.20;61.00
55711;DHT22;41612;51.994;5.880;2022-07-29T03:09:16;18.20;61.10
55711;DHT22;41612;51.994;5.880;2022-07-29T03:11:44;18.20;61.10
55711;DHT22;41612;51.994;5.880;2022-07-29T03:14:10;18.20;61.20
55711;DHT22;41612;51.994;5.880;2022-07-29T03:16:35;18.20;61.30
55711;DHT22;41612;51.994;5.880;2022-07-29T03:19:03;18.10;61.40
55711;DHT22;41612;51.994;5.880;2022-07-29T03:21:29;18.10;61.60
55711;DHT22;41612;51.994;5.880;2022-07-29T03:23:55;18.10;61.60
55711;DHT22;41612;51.994;5.880;2022-07-29T03:26:20;18.00;61.70
55711;DHT22;41612;51.994;5.880;2022-07-29T03:28:46;18.00;61.80
55711;DHT22;41612;51.994;5.880;2022-07-29T03:31:12;18.00;62.00
55711;DHT22;41612;51.994;5.880;2022-07-29T03:33:37;17.80;62.10
55711;DHT22;41612;51.994;5.880;2022-07-29T03:36:03;17.90;62.40
55711;DHT22;41612;51.994;5.880;2022-07-29T03:38:30;17.80;62.60
55711;DHT22;41612;51.994;5.880;2022-07-29T03:41:03;17.80;62.60
55711;DHT22;41612;51.994;5.880;2022-07-29T03:43:32;17.80;62.80
55711;DHT22;41612;51.994;5.880;2022-07-29T03:46:00;17.80;62.90
55711;DHT22;41612;51.994;5.880;2022-07-29T03:48:28;17.80;63.10
55711;DHT22;41612;51.994;5.880;2022-07-29T03:50:56;17.70;63.10
55711;DHT22;41612;51.994;5.880;2022-07-29T03:53:22;17.70;63.30
55711;DHT22;41612;51.994;5.880;2022-07-29T03:55:52;17.60;63.40
55711;DHT22;41612;51.994;5.880;2022-07-29T03:58:19;17.70;63.60
55711;DHT22;41612;51.994;5.880;2022-07-29T04:00:46;17.60;63.70
55711;DHT22;41612;51.994;5.880;2022-07-29T04:03:12;17.50;63.80
55711;DHT22;41612;51.994;5.880;2022-07-29T04:05:38;17.50;64.10
55711;DHT22;41612;51.994;5.880;2022-07-29T04:08:05;17.40;64.20
55711;DHT22;41612;51.994;5.880;2022-07-29T04:10:31;17.40;64.50
55711;DHT22;41612;51.994;5.880;2022-07-29T04:12:57;17.40;64.60
55711;DHT22;41612;51.994;5.880;2022-07-29T04:15:23;17.30;64.60
55711;DHT22;41612;51.994;5.880;2022-07-29T04:17:49;17.30;64.70
55711;DHT22;41612;51.994;5.880;2022-07-29T04:20:14;17.30;64.70
55711;DHT22;41612;51.994;5.880;2022-07-29T04:22:40;17.30;64.80
55711;DHT22;41612;51.994;5.880;2022-07-29T04:25:06;17.30;64.80
55711;DHT22;41612;51.994;5.880;2022-07-29T04:27:33;17.30;64.80
55711;DHT22;41612;51.994;5.880;2022-07-29T04:29:59;17.20;64.80
55711;DHT22;41612;51.994;5.880;2022-07-29T04:32:25;17.20;64.80
55711;DHT22;41612;51.994;5.880;2022-07-29T04:34:52;17.20;64.80
55711;DHT22;41612;51.994;5.880;2022-07-29T04:37:18;17.20;64.80
55711;DHT22;41612;51.994;5.880;2022-07-29T04:39:43;17.20;65.20
55711;DHT22;41612;51.994;5.880;2022-07-29T04:42:15;17.20;65.20
55711;DHT22;41612;51.994;5.880;2022-07-29T04:44:41;17.20;65.20
55711;DHT22;41612;51.994;5.880;2022-07-29T04:47:07;17.20;65.30
55711;DHT22;41612;51.994;5.880;2022-07-29T04:49:33;17.20;65.40
55711;DHT22;41612;51.994;5.880;2022-07-29T04:51:59;17.10;65.40
55711;DHT22;41612;51.994;5.880;2022-07-29T04:54:24;17.20;65.40
55711;DHT22;41612;51.994;5.880;2022-07-29T04:57:08;17.20;65.40
55711;DHT22;41612;51.994;5.880;2022-07-29T04:59:34;17.20;65.30
55711;DHT22;41612;51.994;5.880;2022-07-29T05:02:00;17.20;65.20
55711;DHT22;41612;51.994;5.880;2022-07-29T05:04:26;17.20;65.20
55711;DHT22;41612;51.994;5.880;2022-07-29T05:06:51;17.20;65.20
55711;DHT22;41612;51.994;5.880;2022-07-29T05:09:17;17.20;65.30
55711;DHT22;41612;51.994;5.880;2022-07-29T05:11:51;17.20;65.30
55711;DHT22;41612;51.994;5.880;2022-07-29T05:14:18;17.20;65.20
55711;DHT22;41612;51.994;5.880;2022-07-29T05:16:44;17.20;65.10
55711;DHT22;41612;51.994;5.880;2022-07-29T05:19:10;17.20;65.00
55711;DHT22;41612;51.994;5.880;2022-07-29T05:21:36;17.30;65.00
55711;DHT22;41612;51.994;5.880;2022-07-29T05:24:01;17.20;64.90
55711;DHT22;41612;51.994;5.880;2022-07-29T05:26:31;17.20;64.80
55711;DHT22;41612;51.994;5.880;2022-07-29T05:28:58;17.30;64.70
55711;DHT22;41612;51.994;5.880;2022-07-29T05:31:23;17.20;64.80
55711;DHT22;41612;51.994;5.880;2022-07-29T05:33:49;17.30;64.70
55711;DHT22;41612;51.994;5.880;2022-07-29T05:36:15;17.20;64.60
55711;DHT22;41612;51.994;5.880;2022-07-29T05:38:41;17.30;64.40
55711;DHT22;41612;51.994;5.880;2022-07-29T05:41:06;17.30;64.60
55711;DHT22;41612;51.994;5.880;2022-07-29T05:43:32;17.30;65.00
55711;DHT22;41612;51.994;5.880;2022-07-29T05:45:58;17.30;64.50
55711;DHT22;41612;51.994;5.880;2022-07-29T05:48:24;17.30;64.40
55711;DHT22;41612;51.994;5.880;2022-07-29T05:50:50;17.40;64.30
55711;DHT22;41612;51.994;5.880;2022-07-29T05:53:16;17.30;64.10
55711;DHT22;41612;51.994;5.880;2022-07-29T05:55:42;17.40;64.10
55711;DHT22;41612;51.994;5.880;2022-07-29T05:58:08;17.40;64.00
55711;DHT22;41612;51.994;5.880;2022-07-29T06:00:34;17.40;64.10
55711;DHT22;41612;51.994;5.880;2022-07-29T06:03:00;17.50;63.90
55711;DHT22;41612;51.994;5.880;2022-07-29T06:05:26;17.40;63.90
55711;DHT22;41612;51.994;5.880;2022-07-29T06:07:52;17.50;63.70
55711;DHT22;41612;51.994;5.880;2022-07-29T06:10:17;17.50;63.70
55711;DHT22;41612;51.994;5.880;2022-07-29T06:12:46;17.50;63.50
55711;DHT22;41612;51.994;5.880;2022-07-29T06:15:12;17.60;63.30
55711;DHT22;41612;51.994;5.880;2022-07-29T06:17:38;17.70;63.10
55711;DHT22;41612;51.994;5.880;2022-07-29T06:20:03;17.70;63.90
55711;DHT22;41612;51.994;5.880;2022-07-29T06:22:30;17.70;63.10
55711;DHT22;41612;51.994;5.880;2022-07-29T06:24:55;17.80;62.80
55711;DHT22;41612;51.994;5.880;2022-07-29T06:27:21;17.80;62.50
55711;DHT22;41612;51.994;5.880;2022-07-29T06:29:47;17.90;62.30
55711;DHT22;41612;51.994;5.880;2022-07-29T06:32:13;18.00;62.00
55711;DHT22;41612;51.994;5.880;2022-07-29T06:34:39;18.00;62.30
55711;DHT22;41612;51.994;5.880;2022-07-29T06:37:08;18.20;61.70
55711;DHT22;41612;51.994;5.880;2022-07-29T06:39:35;18.20;61.70
55711;DHT22;41612;51.994;5.880;2022-07-29T06:42:02;18.30;61.00
55711;DHT22;41612;51.994;5.880;2022-07-29T06:44:31;18.50;60.60
55711;DHT22;41612;51.994;5.880;2022-07-29T06:46:58;18.60;60.20
55711;DHT22;41612;51.994;5.880;2022-07-29T06:49:24;18.70;59.90
55711;DHT22;41612;51.994;5.880;2022-07-29T06:51:51;18.70;59.70
55711;DHT22;41612;51.994;5.880;2022-07-29T06:54:17;18.70;59.40
55711;DHT22;41612;51.994;5.880;2022-07-29T06:56:43;18.80;59.30
55711;DHT22;41612;51.994;5.880;2022-07-29T06:59:10;19.00;58.90
55711;DHT22;41612;51.994;5.880;2022-07-29T07:02:00;19.20;58.20
55711;DHT22;41612;51.994;5.880;2022-07-29T07:04:47;19.50;57.50
55711;DHT22;41612;51.994;5.880;2022-07-29T07:07:19;19.50;57.20
55711;DHT22;41612;51.994;5.880;2022-07-29T07:09:53;19.50;57.20
55711;DHT22;41612;51.994;5.880;2022-07-29T07:12:50;19.50;57.20
55711;DHT22;41612;51.994;5.880;2022-07-29T07:15:25;19.50;57.20
55711;DHT22;41612;51.994;5.880;2022-07-29T08:45:50;20.40;55.10
55711;DHT22;41612;51.994;5.880;2022-07-29T08:48:18;20.40;55.00
55711;DHT22;41612;51.994;5.880;2022-07-29T08:50:45;20.50;54.90
55711;DHT22;41612;51.994;5.880;2022-07-29T08:53:13;20.50;54.80
55711;DHT22;41612;51.994;5.880;2022-07-29T08:55:41;20.60;54.60
55711;DHT22;41612;51.994;5.880;2022-07-29T08:58:08;20.70;54.50
55711;DHT22;41612;51.994;5.880;2022-07-29T09:00:36;20.70;54.40
55711;DHT22;41612;51.994;5.880;2022-07-29T09:03:04;20.80;55.50
55711;DHT22;41612;51.994;5.880;2022-07-29T09:05:31;20.80;55.20
55711;DHT22;41612;51.994;5.880;2022-07-29T09:07:58;20.80;55.40
55711;DHT22;41612;51.994;5.880;2022-07-29T09:10:25;20.90;55.30
55711;DHT22;41612;51.994;5.880;2022-07-29T09:13:06;20.90;58.20
55711;DHT22;41612;51.994;5.880;2022-07-29T09:15:32;21.10;58.30
55711;DHT22;41612;51.994;5.880;2022-07-29T09:17:57;21.10;59.30
55711;DHT22;41612;51.994;5.880;2022-07-29T09:20:26;21.10;59.70
55711;DHT22;41612;51.994;5.880;2022-07-29T09:23:12;21.10;59.40
55711;DHT22;41612;51.994;5.880;2022-07-29T09:25:41;21.00;57.40
55711;DHT22;41612;51.994;5.880;2022-07-29T09:28:12;20.90;56.30
55711;DHT22;41612;51.994;5.880;2022-07-29T09:30:57;20.90;55.30
55711;DHT22;41612;51.994;5.880;2022-07-29T09:33:32;20.80;56.90
55711;DHT22;41612;51.994;5.880;2022-07-29T09:36:05;20.80;57.40
55711;DHT22;41612;51.994;5.880;2022-07-29T09:38:32;20.70;57.60
55711;DHT22;41612;51.994;5.880;2022-07-29T09:41:02;20.70;57.50
55711;DHT22;41612;51.994;5.880;2022-07-29T09:43:29;20.70;57.40
55711;DHT22;41612;51.994;5.880;2022-07-29T09:45:55;20.80;55.80
55711;DHT22;41612;51.994;5.880;2022-07-29T09:48:25;20.80;54.90
55711;DHT22;41612;51.994;5.880;2022-07-29T09:50:51;21.00;54.50
55711;DHT22;41612;51.994;5.880;2022-07-29T09:53:32;21.20;54.10
55711;DHT22;41612;51.994;5.880;2022-07-29T09:55:58;21.40;56.70
55711;DHT22;41612;51.994;5.880;2022-07-29T09:58:26;21.70;56.20
55711;DHT22;41612;51.994;5.880;2022-07-29T10:00:53;21.80;52.90
55711;DHT22;41612;51.994;5.880;2022-07-29T10:03:20;22.10;51.80
55711;DHT22;41612;51.994;5.880;2022-07-29T10:06:07;22.20;51.40
55711;DHT22;41612;51.994;5.880;2022-07-29T10:08:32;22.50;51.30
55711;DHT22;41612;51.994;5.880;2022-07-29T10:11:12;22.70;50.30
55711;DHT22;41612;51.994;5.880;2022-07-29T10:13:47;23.00;51.20
55711;DHT22;41612;51.994;5.880;2022-07-29T10:16:13;23.20;50.00
55711;DHT22;41612;51.994;5.880;2022-07-29T10:18:41;23.20;49.70
55711;DHT22;41612;51.994;5.880;2022-07-29T10:21:07;23.30;51.20
55711;DHT22;41612;51.994;5.880;2022-07-29T10:23:36;23.40;50.00
55711;DHT22;41612;51.994;5.880;2022-07-29T10:26:03;23.60;49.40
55711;DHT22;41612;51.994;5.880;2022-07-29T10:28:37;24.00;48.70
55711;DHT22;41612;51.994;5.880;2022-07-29T10:31:06;24.50;48.50
55711;DHT22;41612;51.994;5.880;2022-07-29T10:36:27;25.50;46.80
55711;DHT22;41612;51.994;5.880;2022-07-29T10:39:05;26.00;45.00
55711;DHT22;41612;51.994;5.880;2022-07-29T10:42:08;26.30;44.00
55711;DHT22;41612;51.994;5.880;2022-07-29T10:44:40;26.70;44.20
55711;DHT22;41612;51.994;5.880;2022-07-29T10:47:06;26.70;43.70
55711;DHT22;41612;51.994;5.880;2022-07-29T10:49:32;26.70;44.80
55711;DHT22;41612;51.994;5.880;2022-07-29T10:52:09;26.80;45.00
55711;DHT22;41612;51.994;5.880;2022-07-29T11:30:56;28.10;40.30
55711;DHT22;41612;51.994;5.880;2022-07-29T11:33:31;28.50;41.60
55711;DHT22;41612;51.994;5.880;2022-07-29T11:36:11;28.50;40.50
55711;DHT22;41612;51.994;5.880;2022-07-29T11:38:38;28.50;40.20
55711;DHT22;41612;51.994;5.880;2022-07-29T11:41:26;28.40;40.20
55711;DHT22;41612;51.994;5.880;2022-07-29T11:44:20;28.30;41.10
55711;DHT22;41612;51.994;5.880;2022-07-29T11:47:06;28.50;41.20
55711;DHT22;41612;51.994;5.880;2022-07-29T11:49:34;28.70;42.80
55711;DHT22;41612;51.994;5.880;2022-07-29T11:52:00;28.80;42.40
55711;DHT22;41612;51.994;5.880;2022-07-29T11:54:34;28.90;42.30
55711;DHT22;41612;51.994;5.880;2022-07-29T11:57:00;29.10;40.40
55711;DHT22;41612;51.994;5.880;2022-07-29T11:59:50;29.20;40.70
55711;DHT22;41612;51.994;5.880;2022-07-29T12:02:16;29.30;39.20
55711;DHT22;41612;51.994;5.880;2022-07-29T12:04:54;29.50;39.30
55711;DHT22;41612;51.994;5.880;2022-07-29T12:07:30;29.70;39.90
55711;DHT22;41612;51.994;5.880;2022-07-29T12:09:56;29.90;39.00
55711;DHT22;41612;51.994;5.880;2022-07-29T12:12:22;30.10;38.40
55711;DHT22;41612;51.994;5.880;2022-07-29T12:15:32;30.50;38.00
55711;DHT22;41612;51.994;5.880;2022-07-29T12:17:58;31.00;37.90
55711;DHT22;41612;51.994;5.880;2022-07-29T12:20:34;31.50;36.70
55711;DHT22;41612;51.994;5.880;2022-07-29T12:23:05;32.00;35.40
55711;DHT22;41612;51.994;5.880;2022-07-29T12:25:33;32.50;36.20
55711;DHT22;41612;51.994;5.880;2022-07-29T12:28:01;33.00;33.20
55711;DHT22;41612;51.994;5.880;2022-07-29T12:31:00;33.30;33.30
55711;DHT22;41612;51.994;5.880;2022-07-29T12:33:29;33.40;32.90
55711;DHT22;41612;51.994;5.880;2022-07-29T12:35:58;33.80;33.00
55711;DHT22;41612;51.994;5.880;2022-07-29T12:38:25;34.40;32.50
55711;DHT22;41612;51.994;5.880;2022-07-29T12:40:53;35.10;31.20
55711;DHT22;41612;51.994;5.880;2022-07-29T12:43:21;36.00;30.50
55711;DHT22;41612;51.994;5.880;2022-07-29T12:46:24;36.50;28.50
55711;DHT22;41612;51.994;5.880;2022-07-29T12:48:51;37.20;27.90
55711;DHT22;41612;51.994;5.880;2022-07-29T12:51:33;37.20;27.90
55711;DHT22;41612;51.994;5.880;2022-07-29T12:54:06;36.70;27.50
55711;DHT22;41612;51.994;5.880;2022-07-29T12:56:33;36.50;28.90
55711;DHT22;41612;51.994;5.880;2022-07-29T12:59:23;36.70;28.50
55711;DHT22;41612;51.994;5.880;2022-07-29T13:01:51;37.20;29.50
55711;DHT22;41612;51.994;5.880;2022-07-29T13:04:33;38.00;26.10
55711;DHT22;41612;51.994;5.880;2022-07-29T13:07:06;38.50;26.30
55711;DHT22;41612;51.994;5.880;2022-07-29T13:12:06;39.00;25.00
55711;DHT22;41612;51.994;5.880;2022-07-29T13:14:52;39.40;26.10
55711;DHT22;41612;51.994;5.880;2022-07-29T13:17:22;39.80;24.40
55711;DHT22;41612;51.994;5.880;2022-07-29T13:20:05;40.20;23.80
55711;DHT22;41612;51.994;5.880;2022-07-29T13:22:31;40.20;24.90
55711;DHT22;41612;51.994;5.880;2022-07-29T13:24:59;40.60;23.80
55711;DHT22;41612;51.994;5.880;2022-07-29T13:27:29;40.70;23.20
55711;DHT22;41612;51.994;5.880;2022-07-29T13:30:23;39.80;23.30
55711;DHT22;41612;51.994;5.880;2022-07-29T13:32:50;38.80;24.90
55711;DHT22;41612;51.994;5.880;2022-07-29T13:35:16;38.80;26.90
55711;DHT22;41612;51.994;5.880;2022-07-29T13:37:42;39.30;26.50
55711;DHT22;41612;51.994;5.880;2022-07-29T13:40:09;39.00;26.80
55711;DHT22;41612;51.994;5.880;2022-07-29T13:42:35;38.90;27.20
55711;DHT22;41612;51.994;5.880;2022-07-29T13:45:04;39.20;26.60
55711;DHT22;41612;51.994;5.880;2022-07-29T13:47:35;39.30;26.40
55711;DHT22;41612;51.994;5.880;2022-07-29T13:50:03;39.20;26.30
55711;DHT22;41612;51.994;5.880;2022-07-29T13:52:29;38.20;26.10
55711;DHT22;41612;51.994;5.880;2022-07-29T13:54:57;37.00;26.40
55711;DHT22;41612;51.994;5.880;2022-07-29T13:57:22;36.50;26.60
55711;DHT22;41612;51.994;5.880;2022-07-29T14:00:10;35.70;28.10
55711;DHT22;41612;51.994;5.880;2022-07-29T14:02:37;36.60;29.20
55711;DHT22;41612;51.994;5.880;2022-07-29T14:05:05;38.20;28.80
55711;DHT22;41612;51.994;5.880;2022-07-29T14:07:36;39.40;27.40
55711;DHT22;41612;51.994;5.880;2022-07-29T14:10:07;39.20;25.60
55711;DHT22;41612;51.994;5.880;2022-07-29T14:12:39;38.20;27.50
55711;DHT22;41612;51.994;5.880;2022-07-29T14:15:31;37.70;28.30
55711;DHT22;41612;51.994;5.880;2022-07-29T14:17:57;36.30;27.20
55711;DHT22;41612;51.994;5.880;2022-07-29T14:20:24;34.70;28.50
55711;DHT22;41612;51.994;5.880;2022-07-29T14:22:50;33.40;30.60
55711;DHT22;41612;51.994;5.880;2022-07-29T14:25:15;32.50;31.80
55711;DHT22;41612;51.994;5.880;2022-07-29T14:27:44;32.60;35.40
55711;DHT22;41612;51.994;5.880;2022-07-29T14:30:11;33.50;36.60
55711;DHT22;41612;51.994;5.880;2022-07-29T14:32:37;35.30;34.20
55711;DHT22;41612;51.994;5.880;2022-07-29T14:35:04;36.40;32.10
55711;DHT22;41612;51.994;5.880;2022-07-29T14:37:30;35.90;29.50
55711;DHT22;41612;51.994;5.880;2022-07-29T14:39:55;35.00;33.30
55711;DHT22;41612;51.994;5.880;2022-07-29T14:42:25;34.00;35.20
55711;DHT22;41612;51.994;5.880;2022-07-29T14:45:14;33.00;36.90
55711;DHT22;41612;51.994;5.880;2022-07-29T14:47:43;32.20;38.20
55711;DHT22;41612;51.994;5.880;2022-07-29T14:50:14;31.60;36.50
55711;DHT22;41612;51.994;5.880;2022-07-29T14:52:40;31.30;34.40
55711;DHT22;41612;51.994;5.880;2022-07-29T14:55:06;32.70;33.00
55711;DHT22;41612;51.994;5.880;2022-07-29T14:57:34;35.10;30.90
55711;DHT22;41612;51.994;5.880;2022-07-29T15:00:32;37.20;26.80
55711;DHT22;41612;51.994;5.880;2022-07-29T15:03:00;39.10;25.10
55711;DHT22;41612;51.994;5.880;2022-07-29T15:05:27;40.00;27.50
55711;DHT22;41612;51.994;5.880;2022-07-29T15:08:05;40.30;27.70
55711;DHT22;41612;51.994;5.880;2022-07-29T15:10:50;39.90;27.60
55711;DHT22;41612;51.994;5.880;2022-07-29T15:13:45;38.30;28.90
55711;DHT22;41612;51.994;5.880;2022-07-29T15:16:53;37.40;31.10
55711;DHT22;41612;51.994;5.880;2022-07-29T15:19:23;38.40;28.30
55711;DHT22;41612;51.994;5.880;2022-07-29T15:21:49;38.70;28.30
55711;DHT22;41612;51.994;5.880;2022-07-29T15:24:19;37.30;29.10
55711;DHT22;41612;51.994;5.880;2022-07-29T15:26:45;35.70;32.60
55711;DHT22;41612;51.994;5.880;2022-07-29T15:29:11;34.20;35.40
55711;DHT22;41612;51.994;5.880;2022-07-29T15:31:37;33.00;37.20
55711;DHT22;41612;51.994;5.880;2022-07-29T15:34:03;32.20;39.10
55711;DHT22;41612;51.994;5.880;2022-07-29T15:36:32;31.40;39.80
55711;DHT22;41612;51.994;5.880;2022-07-29T15:38:58;30.80;42.10
55711;DHT22;41612;51.994;5.880;2022-07-29T15:41:24;30.30;43.00
55711;DHT22;41612;51.994;5.880;2022-07-29T15:43:50;29.80;43.60
55711;DHT22;41612;51.994;5.880;2022-07-29T15:46:17;29.50;44.40
55711;DHT22;41612;51.994;5.880;2022-07-29T15:49:04;29.20;45.50
55711;DHT22;41612;51.994;5.880;2022-07-29T15:51:30;28.90;46.40
55711;DHT22;41612;51.994;5.880;2022-07-29T15:53:56;28.70;47.00
55711;DHT22;41612;51.994;5.880;2022-07-29T15:56:23;28.40;47.40
55711;DHT22;41612;51.994;5.880;2022-07-29T15:58:49;28.30;48.20
55711;DHT22;41612;51.994;5.880;2022-07-29T16:01:20;28.10;48.50
55711;DHT22;41612;51.994;5.880;2022-07-29T16:03:46;28.00;48.90
55711;DHT22;41612;51.994;5.880;2022-07-29T16:06:12;27.80;49.20
55711;DHT22;41612;51.994;5.880;2022-07-29T16:08:37;27.70;49.50
55711;DHT22;41612;51.994;5.880;2022-07-29T16:11:03;27.60;49.80
55711;DHT22;41612;51.994;5.880;2022-07-29T16:13:29;27.50;50.00
55711;DHT22;41612;51.994;5.880;2022-07-29T16:15:54;27.40;50.20
55711;DHT22;41612;51.994;5.880;2022-07-29T16:18:20;27.30;50.30
55711;DHT22;41612;51.994;5.880;2022-07-29T16:20:46;27.20;50.60
55711;DHT22;41612;51.994;5.880;2022-07-29T16:23:11;27.20;50.70
55711;DHT22;41612;51.994;5.880;2022-07-29T16:25:38;27.10;50.90
55711;DHT22;41612;51.994;5.880;2022-07-29T16:28:04;27.00;51.00
55711;DHT22;41612;51.994;5.880;2022-07-29T16:30:30;26.90;51.10
55711;DHT22;41612;51.994;5.880;2022-07-29T16:32:55;26.90;51.20
55711;DHT22;41612;51.994;5.880;2022-07-29T16:35:21;26.80;51.30
55711;DHT22;41612;51.994;5.880;2022-07-29T16:37:47;26.70;50.20
55711;DHT22;41612;51.994;5.880;2022-07-29T16:40:13;26.70;51.00
55711;DHT22;41612;51.994;5.880;2022-07-29T16:42:39;26.60;51.30
55711;DHT22;41612;51.994;5.880;2022-07-29T16:45:05;26.60;51.60
55711;DHT22;41612;51.994;5.880;2022-07-29T16:47:31;26.50;51.80
55711;DHT22;41612;51.994;5.880;2022-07-29T16:49:57;26.50;51.90
55711;DHT22;41612;51.994;5.880;2022-07-29T16:52:23;26.40;52.10
55711;DHT22;41612;51.994;5.880;2022-07-29T16:54:49;26.40;52.20
55711;DHT22;41612;51.994;5.880;2022-07-29T16:57:15;26.30;52.30
55711;DHT22;41612;51.994;5.880;2022-07-29T16:59:47;26.30;52.40
55711;DHT22;41612;51.994;5.880;2022-07-29T17:02:15;26.20;52.40
55711;DHT22;41612;51.994;5.880;2022-07-29T17:04:41;26.20;52.60
55711;DHT22;41612;51.994;5.880;2022-07-29T17:07:06;26.00;52.90
55711;DHT22;41612;51.994;5.880;2022-07-29T17:09:35;25.90;53.30
55711;DHT22;41612;51.994;5.880;2022-07-29T17:12:05;25.80;53.70
55711;DHT22;41612;51.994;5.880;2022-07-29T17:15:08;25.60;54.10
55711;DHT22;41612;51.994;5.880;2022-07-29T17:17:34;25.50;54.50
55711;DHT22;41612;51.994;5.880;2022-07-29T17:20:00;25.40;54.80
55711;DHT22;41612;51.994;5.880;2022-07-29T17:22:26;25.30;55.10
55711;DHT22;41612;51.994;5.880;2022-07-29T17:24:54;25.20;55.40
55711;DHT22;41612;51.994;5.880;2022-07-29T17:27:20;25.30;55.80
55711;DHT22;41612;51.994;5.880;2022-07-29T17:33:18;25.20;56.00
55711;DHT22;41612;51.994;5.880;2022-07-29T17:35:46;25.20;56.30
55711;DHT22;41612;51.994;5.880;2022-07-29T17:38:30;25.10;56.50
55711;DHT22;41612;51.994;5.880;2022-07-29T17:40:56;25.00;56.80
55711;DHT22;41612;51.994;5.880;2022-07-29T17:43:24;25.00;56.80
55711;DHT22;41612;51.994;5.880;2022-07-29T17:45:49;25.10;56.90
55711;DHT22;41612;51.994;5.880;2022-07-29T17:48:21;25.20;56.80
55711;DHT22;41612;51.994;5.880;2022-07-29T17:50:48;25.20;56.60
55711;DHT22;41612;51.994;5.880;2022-07-29T17:53:14;25.20;56.70
55711;DHT22;41612;51.994;5.880;2022-07-29T17:55:45;25.30;56.60
55711;DHT22;41612;51.994;5.880;2022-07-29T17:58:13;25.30;56.60
55711;DHT22;41612;51.994;5.880;2022-07-29T18:01:03;25.40;56.50
55711;DHT22;41612;51.994;5.880;2022-07-29T18:03:39;25.40;56.50
55711;DHT22;41612;51.994;5.880;2022-07-29T18:06:18;25.40;56.40
55711;DHT22;41612;51.994;5.880;2022-07-29T18:08:44;25.40;56.20